Terminal Aerodrome Forecast
Issued by NWS

Home | Current Version | Previous Version | Text Only | Print | Product List | Glossary On
Versions: 1 2 3 4 5 6 7 8 9 10 11 12 13 14 15 16 17 18
000
FTUS46 KMTR 220500
TAFOAK
TAF
KOAK 220520Z 2206/2312 VRB03KT P6SM SCT009 BKN012
     FM220700 00000KT 4SM BR OVC009
     FM221800 31005KT P6SM OVC015
     FM222300 29007KT P6SM BKN025
     FM230300 24004KT P6SM BKN030=

USA.gov is the U.S. government's official web portal to all federal, state and local government web resources and services.